Decoded Metar for KDAA (FORT BELVOIR/DAV in VA, USA) (IATA:DAA) | Meteo·Mobile Aviation Weather
aviador You're here:

KDAA Decoded Metar

FORT BELVOIR/DAV in VA, USA
Report Time2019-02-17 15:56:00
UTC Time2019-02-17 16:50:30
Flight Rules vfr VFR
WindCalm
Visibility9999 m
Phenomena:N/A
Clouds:Overcast 055 Hf
Expected CloudBase > 3,200 ft AGL from Temp-Dew spread
Ceiling5,500 ft
Temp02°C (ISA -13)
Dew Point-6°C (56% RH)
AAT-0.7°C
QNH1022 hPa
Density Alt-1,749 ft
Elevation69 ft
Report Wrong Elevation
Raw Report
KDAA 171556Z AUTO 00000KT 10SM OVC055 02/M06 A3018 RMK AO2 PRESRR
SLP224 T00231063 $=

Extra information for KDAA:More info

Metar Taf Metar & Taf Last 4 Metars F.Rules Stats Wind Profile Meteogram Temp Stats Airport Information Weather charts Add Link Nearby VenuesMetar ALERT Operation Metar Decoded Social comments

AIRNAV info for KDAA